createdAt,value
2023-02-24T00:02:46.989Z,99832.00
2023-02-24T00:06:49.074Z,99827.72
2023-02-24T00:10:51.473Z,99817.72
2023-02-24T00:14:53.510Z,99817.50
2023-02-24T00:18:55.415Z,99807.34
2023-02-24T00:22:57.758Z,99807.53
2023-02-24T00:27:01.931Z,99804.06
2023-02-24T00:31:10.827Z,99800.00
2023-02-24T00:35:12.904Z,99796.66
2023-02-24T00:39:15.055Z,99787.22
2023-02-24T00:43:17.115Z,99778.78
2023-02-24T00:47:19.096Z,99770.16
2023-02-24T00:51:27.035Z,99767.81
2023-02-24T00:55:36.283Z,99761.66
2023-02-24T00:59:38.407Z,99768.41
2023-02-24T01:03:42.199Z,99755.72
2023-02-24T01:07:44.164Z,99747.84
2023-02-24T01:12:07.301Z,99744.44
2023-02-24T01:16:09.392Z,99727.09
2023-02-24T01:20:19.111Z,99708.03
2023-02-24T01:24:23.757Z,99708.78
2023-02-24T01:28:27.039Z,99709.06
2023-02-24T01:32:31.853Z,99710.44
2023-02-24T01:36:34.102Z,99704.91
2023-02-24T01:40:36.062Z,99694.09
2023-02-24T01:44:43.589Z,99698.91
2023-02-24T01:48:45.553Z,99679.66
2023-02-24T01:52:50.325Z,99686.03
2023-02-24T01:56:56.145Z,99674.03
2023-02-24T02:00:58.222Z,99663.72
2023-02-24T02:05:05.539Z,99654.09
2023-02-24T02:09:08.052Z,99654.09
2023-02-24T02:13:13.127Z,99650.34
2023-02-24T02:17:24.771Z,99640.78
2023-02-24T02:21:56.528Z,99632.03
2023-02-24T02:26:04.175Z,99630.88
2023-02-24T02:30:14.074Z,99618.66
2023-02-24T02:34:25.834Z,99618.44
2023-02-24T02:38:47.377Z,99615.78
2023-02-24T02:43:19.497Z,99608.63
2023-02-24T02:47:35.077Z,99602.53
2023-02-24T02:51:42.671Z,99602.47
2023-02-24T02:55:53.451Z,99604.50
2023-02-24T03:00:01.000Z,99603.53
2023-02-24T03:04:07.167Z,99595.25
2023-02-24T03:08:11.677Z,99590.06
2023-02-24T03:12:18.127Z,99582.19
2023-02-24T03:16:23.166Z,99571.94
2023-02-24T03:20:32.765Z,99554.72
2023-02-24T03:24:38.913Z,99528.13
2023-02-24T03:28:53.105Z,99523.75
2023-02-24T03:33:03.577Z,99502.56
2023-02-24T03:37:06.375Z,99481.91
2023-02-24T03:41:11.807Z,99483.38
2023-02-24T03:45:16.328Z,99482.78
2023-02-24T03:49:18.812Z,99472.78
2023-02-24T03:53:56.442Z,99468.44
2023-02-24T03:58:21.501Z,99468.59
2023-02-24T04:02:28.456Z,99460.81
2023-02-24T04:07:00.434Z,99463.25
2023-02-24T04:11:13.730Z,99460.59
2023-02-24T04:15:37.762Z,99451.28
2023-02-24T04:19:44.615Z,99446.75
2023-02-24T04:23:47.929Z,99446.81
2023-02-24T04:27:53.773Z,99437.75
2023-02-24T04:32:02.533Z,99432.19
2023-02-24T04:36:05.511Z,99427.06
2023-02-24T04:40:14.042Z,99421.94
2023-02-24T04:44:17.763Z,99420.88
2023-02-24T04:48:20.333Z,99421.03
2023-02-24T04:52:22.651Z,99422.22
2023-02-24T04:56:24.546Z,99426.00
2023-02-24T05:00:29.367Z,99430.97
2023-02-24T05:04:35.961Z,99434.31
2023-02-24T05:08:38.614Z,99437.31
2023-02-24T05:12:40.911Z,99431.66
2023-02-24T05:16:44.113Z,99431.34
2023-02-24T05:21:07.593Z,99423.72
2023-02-24T05:25:09.631Z,99428.69
2023-02-24T05:29:12.517Z,99426.09
2023-02-24T05:33:14.470Z,99426.44
2023-02-24T05:37:16.647Z,99423.59
2023-02-24T05:41:19.822Z,99427.81
2023-02-24T05:45:21.701Z,99428.31
2023-02-24T05:49:28.566Z,99425.97
2023-02-24T05:53:30.474Z,99432.63
2023-02-24T05:57:35.501Z,99426.41
2023-02-24T06:01:45.651Z,99423.66
2023-02-24T06:05:54.256Z,99423.06
2023-02-24T06:09:57.726Z,99410.19
2023-02-24T06:13:59.804Z,99412.09
2023-02-24T06:18:01.841Z,99412.81
2023-02-24T06:22:04.221Z,99417.94
2023-02-24T06:26:12.849Z,99421.28
2023-02-24T06:30:15.141Z,99418.59
2023-02-24T06:34:19.792Z,99406.81
2023-02-24T06:38:21.951Z,99407.06
2023-02-24T06:42:24.084Z,99403.78
2023-02-24T06:46:26.202Z,99397.34
2023-02-24T06:50:28.840Z,99398.38
2023-02-24T06:54:30.856Z,99389.84
2023-02-24T06:58:33.409Z,99392.91
2023-02-24T07:02:39.569Z,99398.38
2023-02-24T07:06:44.009Z,99391.75
2023-02-24T07:10:51.352Z,99384.06
2023-02-24T07:14:53.339Z,99379.03
2023-02-24T07:18:56.810Z,99373.91
2023-02-24T07:22:59.012Z,99369.72
2023-02-24T07:27:04.267Z,99366.66
2023-02-24T07:31:12.135Z,99362.72
2023-02-24T07:35:14.493Z,99361.63
2023-02-24T07:39:17.679Z,99357.44
2023-02-24T07:43:19.714Z,99360.72
2023-02-24T07:47:22.840Z,99348.59
2023-02-24T07:51:26.930Z,99343.63
2023-02-24T07:55:31.401Z,99351.66
2023-02-24T07:59:37.531Z,99351.19
2023-02-24T08:03:41.526Z,99346.91
2023-02-24T08:07:49.838Z,99343.91
2023-02-24T08:11:56.425Z,99339.59
2023-02-24T08:15:58.466Z,99335.16
2023-02-24T08:20:21.049Z,99335.03
2023-02-24T08:24:25.415Z,99333.19
2023-02-24T08:28:27.552Z,99323.63
2023-02-24T08:32:43.343Z,99324.47
2023-02-24T08:36:48.468Z,99312.69
2023-02-24T08:40:52.438Z,99306.47
2023-02-24T08:44:54.667Z,99299.53
2023-02-24T08:49:00.743Z,99298.41
2023-02-24T08:53:02.919Z,99280.13
2023-02-24T08:57:08.162Z,99280.13
2023-02-24T09:01:25.904Z,99285.16
2023-02-24T09:05:28.824Z,99270.91
2023-02-24T09:09:30.465Z,99264.84
2023-02-24T09:13:35.352Z,99261.28
2023-02-24T09:17:46.120Z,99258.75
2023-02-24T09:21:48.319Z,99247.16
2023-02-24T09:25:50.059Z,99249.78
2023-02-24T09:29:52.061Z,99250.41
2023-02-24T09:33:54.245Z,99244.47
2023-02-24T09:38:00.271Z,99232.94
2023-02-24T09:42:08.054Z,99233.19
2023-02-24T09:46:15.172Z,99227.09
2023-02-24T09:50:46.856Z,99222.44
2023-02-24T09:54:53.179Z,99214.25
2023-02-24T09:59:12.397Z,99223.84
2023-02-24T10:03:42.873Z,99220.75
2023-02-24T10:07:46.191Z,99212.91
2023-02-24T10:11:54.567Z,99208.09
2023-02-24T10:15:58.803Z,99200.06
2023-02-24T10:20:28.485Z,99199.03
2023-02-24T10:24:30.670Z,99197.13
2023-02-24T10:28:46.460Z,99194.81
2023-02-24T10:32:59.017Z,99191.47
2023-02-24T10:37:27.546Z,99195.66
2023-02-24T10:41:30.954Z,99188.13
2023-02-24T10:45:45.144Z,99180.38
2023-02-24T10:49:59.037Z,99160.84
2023-02-24T10:54:22.314Z,99167.72
2023-02-24T10:59:09.670Z,99160.28
2023-02-24T11:03:22.153Z,99151.41
2023-02-24T11:07:43.859Z,99151.84
2023-02-24T11:12:05.465Z,99143.59
2023-02-24T11:16:28.743Z,99123.69
2023-02-24T11:20:49.418Z,99119.94
2023-02-24T11:24:53.194Z,99115.97
2023-02-24T11:29:43.003Z,99101.44
2023-02-24T11:34:00.613Z,99084.66
2023-02-24T11:38:19.639Z,99075.66
2023-02-24T11:42:24.922Z,99069.19
2023-02-24T11:46:39.440Z,99056.84
2023-02-24T11:50:51.872Z,99060.22
2023-02-24T11:54:57.980Z,99056.84
2023-02-24T11:59:16.222Z,99045.78
2023-02-24T12:03:30.619Z,99039.94
2023-02-24T12:07:36.744Z,99033.06
2023-02-24T12:11:52.076Z,99022.91
2023-02-24T12:16:10.992Z,99020.38
2023-02-24T12:20:16.536Z,99003.91
2023-02-24T12:24:19.442Z,98998.56
2023-02-24T12:28:40.707Z,98991.25
2023-02-24T12:33:00.002Z,98970.44
2023-02-24T12:37:18.468Z,98961.41
2023-02-24T12:41:45.156Z,98962.59
2023-02-24T12:46:13.749Z,98962.97
2023-02-24T12:50:48.126Z,98957.91
2023-02-24T12:54:57.706Z,98954.81
2023-02-24T12:59:05.376Z,98944.13
2023-02-24T13:03:31.908Z,98935.41
2023-02-24T13:07:52.699Z,98936.50
2023-02-24T13:12:15.631Z,98958.53
2023-02-24T13:16:32.510Z,98943.22
2023-02-24T13:20:38.088Z,98927.66
2023-02-24T13:24:43.386Z,98917.38
2023-02-24T13:28:45.335Z,98921.16
2023-02-24T13:33:00.671Z,98925.28
2023-02-24T13:37:02.608Z,98916.97
2023-02-24T13:41:08.959Z,98911.38
2023-02-24T13:45:10.880Z,98892.72
2023-02-24T13:49:23.054Z,98905.91
2023-02-24T13:53:37.375Z,98902.28
2023-02-24T13:57:54.418Z,98892.97
2023-02-24T14:02:00.569Z,98893.97
2023-02-24T14:06:04.024Z,98888.50
2023-02-24T14:10:20.429Z,98893.41
2023-02-24T14:14:23.122Z,98890.47
2023-02-24T14:18:28.697Z,98895.94
2023-02-24T14:22:30.755Z,98904.66
2023-02-24T14:26:42.246Z,98911.94
2023-02-24T14:30:45.302Z,98899.78
2023-02-24T14:34:48.030Z,98886.84
2023-02-24T14:39:00.517Z,98895.50
2023-02-24T14:43:03.693Z,98884.59
2023-02-24T14:47:11.287Z,98889.91
2023-02-24T14:51:24.109Z,98879.34
2023-02-24T14:55:55.965Z,98865.75
2023-02-24T15:00:17.283Z,98857.28
2023-02-24T15:04:33.398Z,98855.13
2023-02-24T15:08:37.887Z,98855.09
2023-02-24T15:12:47.326Z,98841.28
2023-02-24T15:16:53.110Z,98841.00
2023-02-24T15:21:07.315Z,98841.59
2023-02-24T15:25:19.134Z,98834.06
2023-02-24T15:29:25.819Z,98822.31
2023-02-24T15:34:01.450Z,98826.22
2023-02-24T15:38:04.396Z,98827.19
2023-02-24T15:42:09.572Z,98832.78
2023-02-24T15:46:15.709Z,98829.72
2023-02-24T15:50:18.067Z,98831.38
2023-02-24T15:54:29.452Z,98837.63
2023-02-24T15:58:32.981Z,98833.00
2023-02-24T16:02:35.099Z,98840.97
2023-02-24T16:06:41.701Z,98831.00
2023-02-24T16:10:44.112Z,98820.50
2023-02-24T16:14:47.960Z,98829.31
2023-02-24T16:18:50.918Z,98830.47
2023-02-24T16:23:01.522Z,98820.69
2023-02-24T16:27:03.686Z,98826.59
2023-02-24T16:31:07.331Z,98827.75
2023-02-24T16:35:11.088Z,98829.06
2023-02-24T16:39:14.160Z,98840.69
2023-02-24T16:43:16.857Z,98838.66
2023-02-24T16:47:22.288Z,98837.00
2023-02-24T16:51:24.699Z,98829.81
2023-02-24T16:55:26.968Z,98839.50
2023-02-24T16:59:28.736Z,98855.44
2023-02-24T17:03:41.265Z,98857.84
2023-02-24T17:07:43.395Z,98851.81
2023-02-24T17:11:45.847Z,98864.16
2023-02-24T17:15:49.728Z,98870.94
2023-02-24T17:19:51.728Z,98864.63
2023-02-24T17:23:53.768Z,98879.50
2023-02-24T17:27:56.699Z,98862.34
2023-02-24T17:31:58.770Z,98848.19
2023-02-24T17:36:00.825Z,98848.69
2023-02-24T17:40:05.438Z,98850.06
2023-02-24T17:44:07.737Z,98850.53
2023-02-24T17:48:10.316Z,98865.63
2023-02-24T17:52:12.230Z,98853.91
2023-02-24T17:56:14.199Z,98856.06
2023-02-24T18:00:16.706Z,98857.00
2023-02-24T18:04:18.887Z,98840.00
2023-02-24T18:08:20.991Z,98833.16
2023-02-24T18:12:24.614Z,98833.59
2023-02-24T18:16:27.155Z,98816.00
2023-02-24T18:20:30.559Z,98809.34
2023-02-24T18:24:34.302Z,98810.63
2023-02-24T18:28:36.745Z,98796.06
2023-02-24T18:32:44.424Z,98798.66
2023-02-24T18:36:46.651Z,98803.00
2023-02-24T18:40:57.371Z,98802.47
2023-02-24T18:44:59.882Z,98788.88
2023-02-24T18:49:01.984Z,98779.41
2023-02-24T18:53:04.051Z,98766.44
2023-02-24T18:57:06.082Z,98766.66
2023-02-24T19:01:34.792Z,98758.38
2023-02-24T19:05:38.969Z,98745.13
2023-02-24T19:09:42.672Z,98737.06
2023-02-24T19:13:47.545Z,98735.66
2023-02-24T19:17:49.562Z,98723.03
2023-02-24T19:21:51.544Z,98708.28
2023-02-24T19:25:53.885Z,98708.75
2023-02-24T19:29:55.895Z,98692.78
2023-02-24T19:34:00.804Z,98695.84
2023-02-24T19:38:02.864Z,98683.81
2023-02-24T19:42:06.508Z,98670.41
2023-02-24T19:46:11.476Z,98642.22
2023-02-24T19:50:15.600Z,98647.78
2023-02-24T19:54:17.531Z,98641.06
2023-02-24T19:58:19.179Z,98632.03
2023-02-24T20:02:21.188Z,98633.16
2023-02-24T20:06:31.459Z,98636.66
2023-02-24T20:10:33.824Z,98631.81
2023-02-24T20:14:35.883Z,98629.09
2023-02-24T20:18:38.637Z,98626.19
2023-02-24T20:22:40.415Z,98618.72
2023-02-24T20:26:47.029Z,98615.38
2023-02-24T20:30:51.250Z,98599.72
2023-02-24T20:34:53.241Z,98599.38
2023-02-24T20:38:57.835Z,98599.44
2023-02-24T20:43:07.605Z,98595.44
2023-02-24T20:47:09.637Z,98597.22
2023-02-24T20:51:15.367Z,98591.84
2023-02-24T20:55:17.750Z,98586.88
2023-02-24T20:59:21.954Z,98577.59
2023-02-24T21:03:25.353Z,98568.63
2023-02-24T21:07:27.294Z,98562.38
2023-02-24T21:11:32.159Z,98559.31
2023-02-24T21:15:34.130Z,98561.75
2023-02-24T21:19:36.177Z,98550.25
2023-02-24T21:23:38.823Z,98544.00
2023-02-24T21:27:40.952Z,98533.72
2023-02-24T21:31:43.213Z,98528.53
2023-02-24T21:35:55.881Z,98525.41
2023-02-24T21:39:57.825Z,98527.81
2023-02-24T21:44:00.550Z,98503.69
2023-02-24T21:48:02.493Z,98500.31
2023-02-24T21:52:05.471Z,98504.03
2023-02-24T21:56:19.336Z,98503.81
2023-02-24T22:00:24.080Z,98489.16
2023-02-24T22:04:26.032Z,98487.91
2023-02-24T22:08:28.478Z,98476.78
2023-02-24T22:12:30.193Z,98467.13
2023-02-24T22:16:32.298Z,98472.84
2023-02-24T22:20:34.211Z,98472.50
2023-02-24T22:24:36.370Z,98451.19
2023-02-24T22:28:41.506Z,98448.72
2023-02-24T22:32:43.527Z,98445.94
2023-02-24T22:36:45.624Z,98429.22
2023-02-24T22:40:59.591Z,98421.94
2023-02-24T22:45:01.516Z,98419.66
2023-02-24T22:49:04.350Z,98423.81
2023-02-24T22:53:06.280Z,98418.81
2023-02-24T22:57:08.232Z,98413.63
2023-02-24T23:01:22.340Z,98422.13
2023-02-24T23:05:24.315Z,98422.94
2023-02-24T23:09:26.322Z,98411.63
2023-02-24T23:13:28.421Z,98405.94
2023-02-24T23:17:30.089Z,98379.56
2023-02-24T23:21:37.869Z,98383.72
2023-02-24T23:25:39.930Z,98379.13
2023-02-24T23:29:41.908Z,98377.88
2023-02-24T23:33:44.016Z,98380.47
2023-02-24T23:37:45.698Z,98377.16
2023-02-24T23:41:47.744Z,98362.94
2023-02-24T23:45:49.973Z,98343.59
2023-02-24T23:49:52.026Z,98336.69
2023-02-24T23:53:54.046Z,98323.50
2023-02-24T23:57:57.177Z,98315.94
